This is the latest recevied weather packets stored in our database for station/object SQ8AQX-13. If no packets are shown the sender has not sent any weather packets the latest 10 day(s).
| Time | Temp. | Humidity | Pressure | Rain* | Wind** | Luminosity | Snow |
|---|---|---|---|---|---|---|---|
| 1777716792 | 18.89° C | 38% | 1027.3 hPa | - | - | - | - |
| 1777716192 | 18.89° C | 39% | 1027.5 hPa | - | - | - | - |
| 1777714405 | 17.78° C | 43% | 1027.7 hPa | - | - | - | - |
| 1777713791 | 17.22° C | 42% | 1027.9 hPa | - | - | - | - |
| 1777713191 | 17.78° C | 40% | 1027.9 hPa | - | - | - | - |
| 1777711391 | 17.78° C | 42% | 1028.1 hPa | - | - | - | - |
| 1777710791 | 17.78° C | 41% | 1028.1 hPa | - | - | - | - |
| 1777710191 | 16.67° C | 44% | 1028.2 hPa | - | - | - | - |
| 1777708390 | 16.11° C | 49% | 1028.4 hPa | - | - | - | - |
| 1777707790 | 15.56° C | 47% | 1028.5 hPa | - | - | - | - |
| 1777707190 | 16.11° C | 47% | 1028.4 hPa | - | - | - | - |
| 1777705390 | 15° C | 53% | 1028.5 hPa | - | - | - | - |
| 1777704790 | 13.89° C | 57% | 1028.5 hPa | - | - | - | - |
| 1777704190 | 13.33° C | 57% | 1028.5 hPa | - | - | - | - |
| 1777702389 | 11.67° C | 63% | 1028.5 hPa | - | - | - | - |
| 1777701789 | 10.56° C | 68% | 1028.4 hPa | - | - | - | - |
| 1777701189 | 10° C | 70% | 1028.4 hPa | - | - | - | - |
| 1777699389 | 7.78° C | 75% | 1028.4 hPa | - | - | - | - |
| 1777698788 | 7.22° C | 76% | 1028.3 hPa | - | - | - | - |
| 1777698188 | 6.67° C | 77% | 1028.3 hPa | - | - | - | - |
| 1777695788 | 5° C | 79% | 1028 hPa | - | - | - | - |
| 1777695188 | 5° C | 79% | 1027.9 hPa | - | - | - | - |
| 1777694588 | 5° C | 79% | 1027.8 hPa | - | - | - | - |
| 1777693988 | 4.44° C | 78% | 1027.8 hPa | - | - | - | - |
| 1777691588 | 4.44° C | 77% | 1027.5 hPa | - | - | - | - |
* Rain since midnight (hover to see other rain measurements)
** Current wind speed in m/s (hover to see current wind gust speed)